Terminal Aerodrome Forecast
Issued by NWS Upton, NY

Home | Current Version | Previous Version | Text Only | Print | Product List | Glossary On
Versions: 1 2 3 4 5 6 7 8 9 10 11 12 13 14 15 16 17 18 19 20 21 22 23 24 25 26 27 28
000
FTUS41 KOKX 172300 RRA
TAFLGA
TAF
KLGA 172341Z 1800/1824 30016G22KT P6SM BKN050
      TEMPO 1800/1801 P6SM -SHRA
     FM180600 30018G26KT P6SM SCT040
      TEMPO 1806/1810 BKN040
     FM182200 31013G20KT P6SM SCT035=

USA.gov is the U.S. government's official web portal to all federal, state and local government web resources and services.